Bayonne — WDB4786 — position and weather

sailwx.info

Track history (hours):
 
Tides and Currents Weather Stations Pressure Air Temp Water Temp Dewpoint Dewpoint Depression Visibility Wind Speed Wind Dir Waves Ship Positions

Bayonne

Owner: PORT IMPERIAL FERRY CORP, WEEHAWKEN, NJ. More information available from US FCC via Universal Licensing System and Coast Guard Vessel Documentation Center.

Last reported at 2018-Mar-15 14:47 UTC. Time now 2018-Apr-21 23:20 UTC.
Position N 40°46' W 074°01'.
Warning: this ship's position is 37 days out of date.

Date/timePositionNaut miles runAvg speedWind from/ knotsBaromVisibWave heightAir tempDewpointWater temp
2018-Mar-15 14:47N 40°46' W 074°01'414.9
2018-Mar-15 14:30N 40°42' W 074°01'4 8.7
2018-Mar-15 14:00N 40°47' W 074°01'4 7.8
2018-Mar-15 13:31N 40°43' W 074°01'1 2.1
2018-Mar-15 13:00N 40°42' W 074°00'3 5.9
2018-Mar-15 12:31N 40°45' W 074°01'2 3.5
2018-Mar-15 12:00N 40°47' W 074°01'4 8.5
2018-Mar-15 11:31N 40°42' W 074°01'1 1.5
2018-Mar-15 11:01N 40°42' W 074°01'5 9.6
2018-Mar-15 10:31N 40°47' W 074°01'0 0.0
2018-Mar-15 10:00N 40°47' W 074°01'0 0.0
2018-Mar-15 09:30N 40°47' W 074°01'0 0.0
2018-Mar-15 09:00N 40°47' W 074°01'0 0.0
2018-Mar-15 00:26N 40°47' W 074°01'410.4
2018-Mar-15 00:00N 40°42' W 074°00'3 6.3
2018-Mar-14 23:30N 40°45' W 074°01'0 0.5
2018-Mar-14 23:00N 40°45' W 074°01'2 4.7
2018-Mar-14 22:31N 40°43' W 074°01'4 7.2
2018-Mar-14 22:00N 40°47' W 074°01'4 8.9
2018-Mar-14 21:30N 40°42' W 074°00'2 3.7
2018-Mar-14 21:00N 40°44' W 074°01'3 5.1
2018-Mar-14 20:30N 40°47' W 074°01'5 9.3
2018-Mar-14 20:01N 40°42' W 074°00'4 0.8
2018-Mar-14 14:53N 40°46' W 074°01'411.6
2018-Mar-14 14:31N 40°42' W 074°01'5 9.2
2018-Mar-14 14:00N 40°47' W 074°01'1 2.8
2018-Mar-14 13:30N 40°45' W 074°01'3 6.0
2018-Mar-14 13:00N 40°42' W 074°00'2 3.3
2018-Mar-14 12:30N 40°44' W 074°01'3 6.1
2018-Mar-14 12:00N 40°47' W 074°01'4 7.4
2018-Mar-14 11:31N 40°43' W 074°01'1 2.5
2018-Mar-14 11:01N 40°42' W 074°01'3 6.9
2018-Mar-14 10:30N 40°45' W 074°01'1 2.6
2018-Mar-14 10:00N 40°47' W 074°01'0 0.0
2018-Mar-14 09:29N 40°47' W 074°01'0 0.0
2018-Mar-14 00:25N 40°47' W 074°01'410.6
2018-Mar-14 00:00N 40°42' W 074°00'4 8.4
2018-Mar-13 23:29N 40°47' W 074°01'5 9.6
2018-Mar-13 23:01N 40°42' W 074°00'1 2.1
2018-Mar-13 22:30N 40°43' W 074°01'3 5.5
2018-Mar-13 22:00N 40°46' W 074°01'3 6.7
2018-Mar-13 21:30N 40°42' W 074°00'2 5.0
2018-Mar-13 21:00N 40°45' W 074°01'1 1.1
2018-Mar-13 20:31N 40°44' W 074°01'2 3.9
2018-Mar-13 20:00N 40°42' W 074°00'4 0.8
2018-Mar-13 14:47N 40°46' W 074°01'311.4
2018-Mar-13 14:30N 40°43' W 074°01'3 6.7
2018-Mar-13 14:00N 40°47' W 074°01'4 7.8
2018-Mar-13 13:31N 40°43' W 074°01'1 1.9
2018-Mar-13 13:00N 40°42' W 074°01'4 8.3
2018-Mar-13 12:30N 40°46' W 074°00'1 1.0
2018-Mar-13 11:59N 40°47' W 074°01'4 7.9
2018-Mar-13 11:30N 40°43' W 074°02'1 2.4
2018-Mar-13 11:00N 40°42' W 074°01'5 9.2
2018-Mar-13 10:30N 40°47' W 074°01'0 0.0
2018-Mar-13 00:32N 40°47' W 074°01'0 0.0
2018-Mar-13 00:30N 40°47' W 074°01'4 8.9
2018-Mar-13 00:01N 40°42' W 074°00'4 7.6
2018-Mar-12 23:30N 40°46' W 074°01'3 5.3
2018-Mar-12 23:00N 40°43' W 074°01'1 1.4
2018-Mar-12 22:31N 40°43' W 074°01'3 5.1
2018-Mar-12 22:00N 40°45' W 074°01'3 6.5
2018-Mar-12 21:31N 40°42' W 074°00'2 4.2
2018-Mar-12 21:01N 40°44' W 074°01'2 4.6
2018-Mar-12 20:29N 40°47' W 074°01'4 9.3
2018-Mar-12 20:01N 40°42' W 074°00'4 0.8
2018-Mar-12 14:44N 40°46' W 074°01'416.7
2018-Mar-12 14:30N 40°43' W 074°01'4 8.1
2018-Mar-12 14:01N 40°47' W 074°01'4 8.9
2018-Mar-12 13:31N 40°42' W 074°01'1 1.7
2018-Mar-12 13:00N 40°42' W 074°00'3 6.3
2018-Mar-12 12:31N 40°45' W 074°01'1 2.4
2018-Mar-12 11:58N 40°47' W 074°01'4 8.5
2018-Mar-12 11:31N 40°43' W 074°01'1 1.7
2018-Mar-12 11:00N 40°42' W 074°01'4 8.1
2018-Mar-12 10:30N 40°46' W 074°01'  
2018-Mar-10 01:27N 40°47' W 074°01'4 9.6
2018-Mar-10 01:00N 40°42' W 074°00'4 9.0
2018-Mar-10 00:31N 40°47' W 074°01'4 8.1
2018-Mar-10 00:00N 40°42' W 074°01'0 0.9
2018-Mar-09 23:31N 40°43' W 074°01'4 7.2
2018-Mar-09 23:00N 40°47' W 074°01'4 8.8
2018-Mar-09 22:30N 40°42' W 074°00'2 4.2
2018-Mar-09 22:00N 40°44' W 074°01'2 3.0
2018-Mar-09 21:30N 40°46' W 074°01'3 7.0
2018-Mar-09 21:00N 40°42' W 074°00'4 0.8
2018-Mar-09 16:01N 40°46' W 074°01'0 3.8
2018-Mar-09 15:59N 40°46' W 074°01'4 7.5
2018-Mar-09 15:30N 40°42' W 074°01'4 8.1
2018-Mar-09 14:59N 40°47' W 074°01'4 7.6
2018-Mar-09 14:30N 40°43' W 074°01'1 2.0
2018-Mar-09 14:01N 40°42' W 074°01'3 6.3
2018-Mar-09 13:30N 40°45' W 074°01'1 2.8
2018-Mar-09 12:59N 40°47' W 074°01'4 7.7
2018-Mar-09 12:30N 40°43' W 074°01'1 1.9
2018-Mar-09 11:59N 40°42' W 074°00'3 6.9
2018-Mar-09 11:30N 40°46' W 074°01'1 2.0
2018-Mar-09 11:00N 40°47' W 074°01'0 0.0
2018-Mar-09 01:35N 40°46' W 074°01'0 0.6
2018-Mar-09 01:30N 40°46' W 074°01'4 8.0
2018-Mar-09 01:00N 40°42' W 074°00'4 8.4
2018-Mar-09 00:31N 40°46' W 074°00'3 5.0
2018-Mar-09 00:00N 40°44' W 074°01'1 1.9
2018-Mar-08 23:31N 40°43' W 074°01'4 7.2
2018-Mar-08 23:00N 40°47' W 074°01'4 9.1
2018-Mar-08 22:30N 40°42' W 074°00'3 6.1
2018-Mar-08 22:01N 40°45' W 074°01'1 2.7
2018-Mar-08 21:30N 40°46' W 074°00'4 8.0
2018-Mar-08 21:01N 40°43' W 074°01'2 0.1
2018-Mar-07 22:00N 40°45' W 074°01'1 2.5
2018-Mar-07 21:30N 40°46' W 074°01'4 7.1
2018-Mar-07 21:00N 40°42' W 074°00'4 0.8
2018-Mar-07 15:50N 40°46' W 074°01'411.4
2018-Mar-07 15:30N 40°43' W 074°02'4 7.6
2018-Mar-07 15:00N 40°47' W 074°01'4 9.1
2018-Mar-07 14:30N 40°42' W 074°01'0 0.1
2018-Mar-07 14:00N 40°42' W 074°01'3 6.8
2018-Mar-07 13:31N 40°46' W 074°01'1 2.0
2018-Mar-07 13:00N 40°47' W 074°01'4 9.0
2018-Mar-07 12:31N 40°42' W 074°01'0 0.4
2018-Mar-07 12:00N 40°42' W 074°01'3 6.9
2018-Mar-07 11:30N 40°46' W 074°01'1 1.7
2018-Mar-07 11:00N 40°47' W 074°01'0 0.0
2018-Mar-07 10:30N 40°47' W 074°01'0 0.0
2018-Mar-07 10:01N 40°47' W 074°01'0 0.0
2018-Mar-07 01:27N 40°47' W 074°01'4 9.8
2018-Mar-07 01:00N 40°42' W 074°00'4 8.5
2018-Mar-07 00:30N 40°47' W 074°01'4 9.2
2018-Mar-07 00:01N 40°42' W 074°00'1 1.9
2018-Mar-06 23:31N 40°43' W 074°01'4 7.4
2018-Mar-06 23:00N 40°47' W 074°01'4 8.9
2018-Mar-06 22:31N 40°42' W 074°00'2 4.5
2018-Mar-06 22:01N 40°44' W 074°01'1 2.2
2018-Mar-06 21:30N 40°45' W 074°01'3 6.2
2018-Mar-06 21:00N 40°42' W 074°00'4 8.1
2018-Mar-06 20:30N 40°46' W 074°01'0 0.0
2018-Mar-06 20:00N 40°46' W 074°01'0 0.3
2018-Mar-06 19:30N 40°46' W 074°01'1 1.9
2018-Mar-06 19:00N 40°45' W 074°01'1 1.5
2018-Mar-06 18:30N 40°46' W 074°00'1 1.4
2018-Mar-06 18:00N 40°45' W 074°01'1 1.4
2018-Mar-06 17:30N 40°46' W 074°00'1 1.4
2018-Mar-06 17:00N 40°45' W 074°01'1 1.4
2018-Mar-06 16:30N 40°46' W 074°00'1 1.5
2018-Mar-06 16:00N 40°45' W 074°01'3 6.9
2018-Mar-06 15:31N 40°42' W 074°01'5 9.1
2018-Mar-06 15:00N 40°47' W 074°01'5 9.4
2018-Mar-06 14:31N 40°42' W 074°01'1 1.5
2018-Mar-06 14:01N 40°42' W 074°00'4 7.2
2018-Mar-06 13:30N 40°46' W 074°01'1 2.1
2018-Mar-06 13:00N 40°47' W 074°01'5 9.4
2018-Mar-06 12:30N 40°42' W 074°01'0 0.8
2018-Mar-06 12:01N 40°42' W 074°01'4 8.0
2018-Mar-06 11:30N 40°46' W 074°01'1 1.6
2018-Mar-06 11:00N 40°47' W 074°01'0 0.0
2018-Mar-06 01:30N 40°46' W 074°01'4 8.2
2018-Mar-06 01:00N 40°42' W 074°00'4 8.7
2018-Mar-06 00:30N 40°47' W 074°01'3 6.7
2018-Mar-06 00:01N 40°43' W 074°01'0 0.9
2018-Mar-05 23:31N 40°43' W 074°01'3 5.8
2018-Mar-05 23:01N 40°46' W 074°01'4 7.2
2018-Mar-05 22:30N 40°42' W 074°00'3 6.2
2018-Mar-05 22:00N 40°45' W 074°01'1 1.8
2018-Mar-05 21:31N 40°46' W 074°01'4 7.9
2018-Mar-05 21:01N 40°42' W 074°01'4 1.6
2018-Mar-05 18:15N 40°46' W 074°01'0 0.5
2018-Mar-05 18:00N 40°46' W 074°01'0 0.2
2018-Mar-05 17:27N 40°46' W 074°01'0 0.0
2018-Mar-05 17:00N 40°46' W 074°01'0 0.0
2018-Mar-05 16:30N 40°46' W 074°01'0 0.0
2018-Mar-05 16:00N 40°46' W 074°01'0 0.0
2018-Mar-05 15:30N 40°46' W 074°01'0 0.0
2018-Mar-05 15:01N 40°46' W 074°01'  
Track history (hours):
 
Tides and Currents Weather Stations Pressure Air Temp Water Temp Dewpoint Dewpoint Depression Visibility Wind Speed Wind Dir Waves Ship Positions

Bayonne

Owner: PORT IMPERIAL FERRY CORP, WEEHAWKEN, NJ. More information available from US FCC via Universal Licensing System and Coast Guard Vessel Documentation Center.

Last reported at 2018-Mar-15 14:47 UTC. Time now 2018-Apr-21 23:20 UTC.
Position N 40°46' W 074°01'.
Warning: this ship's position is 37 days out of date.

Date/timePositionNaut miles runAvg speedWind from/ knotsBaromVisibWave heightAir tempDewpointWater temp
2018-Mar-15 14:47N 40°46' W 074°01'414.9
2018-Mar-15 14:30N 40°42' W 074°01'4 8.7
2018-Mar-15 14:00N 40°47' W 074°01'4 7.8
2018-Mar-15 13:31N 40°43' W 074°01'1 2.1
2018-Mar-15 13:00N 40°42' W 074°00'3 5.9
2018-Mar-15 12:31N 40°45' W 074°01'2 3.5
2018-Mar-15 12:00N 40°47' W 074°01'4 8.5
2018-Mar-15 11:31N 40°42' W 074°01'1 1.5
2018-Mar-15 11:01N 40°42' W 074°01'5 9.6
2018-Mar-15 10:31N 40°47' W 074°01'0 0.0
2018-Mar-15 10:00N 40°47' W 074°01'0 0.0
2018-Mar-15 09:30N 40°47' W 074°01'0 0.0
2018-Mar-15 09:00N 40°47' W 074°01'0 0.0
2018-Mar-15 00:26N 40°47' W 074°01'410.4
2018-Mar-15 00:00N 40°42' W 074°00'3 6.3
2018-Mar-14 23:30N 40°45' W 074°01'0 0.5
2018-Mar-14 23:00N 40°45' W 074°01'2 4.7
2018-Mar-14 22:31N 40°43' W 074°01'4 7.2
2018-Mar-14 22:00N 40°47' W 074°01'4 8.9
2018-Mar-14 21:30N 40°42' W 074°00'2 3.7
2018-Mar-14 21:00N 40°44' W 074°01'3 5.1
2018-Mar-14 20:30N 40°47' W 074°01'5 9.3
2018-Mar-14 20:01N 40°42' W 074°00'4 0.8
2018-Mar-14 14:53N 40°46' W 074°01'411.6
2018-Mar-14 14:31N 40°42' W 074°01'5 9.2
2018-Mar-14 14:00N 40°47' W 074°01'1 2.8
2018-Mar-14 13:30N 40°45' W 074°01'3 6.0
2018-Mar-14 13:00N 40°42' W 074°00'2 3.3
2018-Mar-14 12:30N 40°44' W 074°01'3 6.1
2018-Mar-14 12:00N 40°47' W 074°01'4 7.4
2018-Mar-14 11:31N 40°43' W 074°01'1 2.5
2018-Mar-14 11:01N 40°42' W 074°01'3 6.9
2018-Mar-14 10:30N 40°45' W 074°01'1 2.6
2018-Mar-14 10:00N 40°47' W 074°01'0 0.0
2018-Mar-14 09:29N 40°47' W 074°01'0 0.0
2018-Mar-14 00:25N 40°47' W 074°01'410.6
2018-Mar-14 00:00N 40°42' W 074°00'4 8.4
2018-Mar-13 23:29N 40°47' W 074°01'5 9.6
2018-Mar-13 23:01N 40°42' W 074°00'1 2.1
2018-Mar-13 22:30N 40°43' W 074°01'3 5.5
2018-Mar-13 22:00N 40°46' W 074°01'3 6.7
2018-Mar-13 21:30N 40°42' W 074°00'2 5.0
2018-Mar-13 21:00N 40°45' W 074°01'1 1.1
2018-Mar-13 20:31N 40°44' W 074°01'2 3.9
2018-Mar-13 20:00N 40°42' W 074°00'4 0.8
2018-Mar-13 14:47N 40°46' W 074°01'311.4
2018-Mar-13 14:30N 40°43' W 074°01'3 6.7
2018-Mar-13 14:00N 40°47' W 074°01'4 7.8
2018-Mar-13 13:31N 40°43' W 074°01'1 1.9
2018-Mar-13 13:00N 40°42' W 074°01'4 8.3
2018-Mar-13 12:30N 40°46' W 074°00'1 1.0
2018-Mar-13 11:59N 40°47' W 074°01'4 7.9
2018-Mar-13 11:30N 40°43' W 074°02'1 2.4
2018-Mar-13 11:00N 40°42' W 074°01'5 9.2
2018-Mar-13 10:30N 40°47' W 074°01'0 0.0
2018-Mar-13 00:32N 40°47' W 074°01'0 0.0
2018-Mar-13 00:30N 40°47' W 074°01'4 8.9
2018-Mar-13 00:01N 40°42' W 074°00'4 7.6
2018-Mar-12 23:30N 40°46' W 074°01'3 5.3
2018-Mar-12 23:00N 40°43' W 074°01'1 1.4
2018-Mar-12 22:31N 40°43' W 074°01'3 5.1
2018-Mar-12 22:00N 40°45' W 074°01'3 6.5
2018-Mar-12 21:31N 40°42' W 074°00'2 4.2
2018-Mar-12 21:01N 40°44' W 074°01'2 4.6
2018-Mar-12 20:29N 40°47' W 074°01'4 9.3
2018-Mar-12 20:01N 40°42' W 074°00'4 0.8
2018-Mar-12 14:44N 40°46' W 074°01'416.7
2018-Mar-12 14:30N 40°43' W 074°01'4 8.1
2018-Mar-12 14:01N 40°47' W 074°01'4 8.9
2018-Mar-12 13:31N 40°42' W 074°01'1 1.7
2018-Mar-12 13:00N 40°42' W 074°00'3 6.3
2018-Mar-12 12:31N 40°45' W 074°01'1 2.4
2018-Mar-12 11:58N 40°47' W 074°01'4 8.5
2018-Mar-12 11:31N 40°43' W 074°01'1 1.7
2018-Mar-12 11:00N 40°42' W 074°01'4 8.1
2018-Mar-12 10:30N 40°46' W 074°01'  
2018-Mar-10 01:27N 40°47' W 074°01'4 9.6
2018-Mar-10 01:00N 40°42' W 074°00'4 9.0
2018-Mar-10 00:31N 40°47' W 074°01'4 8.1
2018-Mar-10 00:00N 40°42' W 074°01'0 0.9
2018-Mar-09 23:31N 40°43' W 074°01'4 7.2
2018-Mar-09 23:00N 40°47' W 074°01'4 8.8
2018-Mar-09 22:30N 40°42' W 074°00'2 4.2
2018-Mar-09 22:00N 40°44' W 074°01'2 3.0
2018-Mar-09 21:30N 40°46' W 074°01'3 7.0
2018-Mar-09 21:00N 40°42' W 074°00'4 0.8
2018-Mar-09 16:01N 40°46' W 074°01'0 3.8
2018-Mar-09 15:59N 40°46' W 074°01'4 7.5
2018-Mar-09 15:30N 40°42' W 074°01'4 8.1
2018-Mar-09 14:59N 40°47' W 074°01'4 7.6
2018-Mar-09 14:30N 40°43' W 074°01'1 2.0
2018-Mar-09 14:01N 40°42' W 074°01'3 6.3
2018-Mar-09 13:30N 40°45' W 074°01'1 2.8
2018-Mar-09 12:59N 40°47' W 074°01'4 7.7
2018-Mar-09 12:30N 40°43' W 074°01'1 1.9
2018-Mar-09 11:59N 40°42' W 074°00'3 6.9
2018-Mar-09 11:30N 40°46' W 074°01'1 2.0
2018-Mar-09 11:00N 40°47' W 074°01'0 0.0
2018-Mar-09 01:35N 40°46' W 074°01'0 0.6
2018-Mar-09 01:30N 40°46' W 074°01'4 8.0
2018-Mar-09 01:00N 40°42' W 074°00'4 8.4
2018-Mar-09 00:31N 40°46' W 074°00'3 5.0
2018-Mar-09 00:00N 40°44' W 074°01'1 1.9
2018-Mar-08 23:31N 40°43' W 074°01'4 7.2
2018-Mar-08 23:00N 40°47' W 074°01'4 9.1
2018-Mar-08 22:30N 40°42' W 074°00'3 6.1
2018-Mar-08 22:01N 40°45' W 074°01'1 2.7
2018-Mar-08 21:30N 40°46' W 074°00'4 8.0
2018-Mar-08 21:01N 40°43' W 074°01'2 0.1
2018-Mar-07 22:00N 40°45' W 074°01'1 2.5
2018-Mar-07 21:30N 40°46' W 074°01'4 7.1
2018-Mar-07 21:00N 40°42' W 074°00'4 0.8
2018-Mar-07 15:50N 40°46' W 074°01'411.4
2018-Mar-07 15:30N 40°43' W 074°02'4 7.6
2018-Mar-07 15:00N 40°47' W 074°01'4 9.1
2018-Mar-07 14:30N 40°42' W 074°01'0 0.1
2018-Mar-07 14:00N 40°42' W 074°01'3 6.8
2018-Mar-07 13:31N 40°46' W 074°01'1 2.0
2018-Mar-07 13:00N 40°47' W 074°01'4 9.0
2018-Mar-07 12:31N 40°42' W 074°01'0 0.4
2018-Mar-07 12:00N 40°42' W 074°01'3 6.9
2018-Mar-07 11:30N 40°46' W 074°01'1 1.7
2018-Mar-07 11:00N 40°47' W 074°01'0 0.0
2018-Mar-07 10:30N 40°47' W 074°01'0 0.0
2018-Mar-07 10:01N 40°47' W 074°01'0 0.0
2018-Mar-07 01:27N 40°47' W 074°01'4 9.8
2018-Mar-07 01:00N 40°42' W 074°00'4 8.5
2018-Mar-07 00:30N 40°47' W 074°01'4 9.2
2018-Mar-07 00:01N 40°42' W 074°00'1 1.9
2018-Mar-06 23:31N 40°43' W 074°01'4 7.4
2018-Mar-06 23:00N 40°47' W 074°01'4 8.9
2018-Mar-06 22:31N 40°42' W 074°00'2 4.5
2018-Mar-06 22:01N 40°44' W 074°01'1 2.2
2018-Mar-06 21:30N 40°45' W 074°01'3 6.2
2018-Mar-06 21:00N 40°42' W 074°00'4 8.1
2018-Mar-06 20:30N 40°46' W 074°01'0 0.0
2018-Mar-06 20:00N 40°46' W 074°01'0 0.3
2018-Mar-06 19:30N 40°46' W 074°01'1 1.9
2018-Mar-06 19:00N 40°45' W 074°01'1 1.5
2018-Mar-06 18:30N 40°46' W 074°00'1 1.4
2018-Mar-06 18:00N 40°45' W 074°01'1 1.4
2018-Mar-06 17:30N 40°46' W 074°00'1 1.4
2018-Mar-06 17:00N 40°45' W 074°01'1 1.4
2018-Mar-06 16:30N 40°46' W 074°00'1 1.5
2018-Mar-06 16:00N 40°45' W 074°01'3 6.9
2018-Mar-06 15:31N 40°42' W 074°01'5 9.1
2018-Mar-06 15:00N 40°47' W 074°01'5 9.4
2018-Mar-06 14:31N 40°42' W 074°01'1 1.5
2018-Mar-06 14:01N 40°42' W 074°00'4 7.2
2018-Mar-06 13:30N 40°46' W 074°01'1 2.1
2018-Mar-06 13:00N 40°47' W 074°01'5 9.4
2018-Mar-06 12:30N 40°42' W 074°01'0 0.8
2018-Mar-06 12:01N 40°42' W 074°01'4 8.0
2018-Mar-06 11:30N 40°46' W 074°01'1 1.6
2018-Mar-06 11:00N 40°47' W 074°01'0 0.0
2018-Mar-06 01:30N 40°46' W 074°01'4 8.2
2018-Mar-06 01:00N 40°42' W 074°00'4 8.7
2018-Mar-06 00:30N 40°47' W 074°01'3 6.7
2018-Mar-06 00:01N 40°43' W 074°01'0 0.9
2018-Mar-05 23:31N 40°43' W 074°01'3 5.8
2018-Mar-05 23:01N 40°46' W 074°01'4 7.2
2018-Mar-05 22:30N 40°42' W 074°00'3 6.2
2018-Mar-05 22:00N 40°45' W 074°01'1 1.8
2018-Mar-05 21:31N 40°46' W 074°01'4 7.9
2018-Mar-05 21:01N 40°42' W 074°01'4 1.6
2018-Mar-05 18:15N 40°46' W 074°01'0 0.5
2018-Mar-05 18:00N 40°46' W 074°01'0 0.2
2018-Mar-05 17:27N 40°46' W 074°01'0 0.0
2018-Mar-05 17:00N 40°46' W 074°01'0 0.0
2018-Mar-05 16:30N 40°46' W 074°01'0 0.0
2018-Mar-05 16:00N 40°46' W 074°01'0 0.0
2018-Mar-05 15:30N 40°46' W 074°01'0 0.0
2018-Mar-05 15:01N 40°46' W 074°01'  

Dump ship's entire track history